createdAt,value
2018-04-02T00:02:16.147Z,3.58
2018-04-02T00:04:44.204Z,3.80
2018-04-02T00:07:12.545Z,2.58
2018-04-02T00:09:40.854Z,2.83
2018-04-02T00:12:09.849Z,2.00
2018-04-02T00:14:38.161Z,2.20
2018-04-02T00:17:06.243Z,2.15
2018-04-02T00:19:34.437Z,1.73
2018-04-02T00:22:02.650Z,2.20
2018-04-02T00:24:30.837Z,2.37
2018-04-02T00:26:58.926Z,2.85
2018-04-02T00:29:27.117Z,2.70
2018-04-02T00:31:55.315Z,3.53
2018-04-02T00:34:23.508Z,2.58
2018-04-02T00:36:51.604Z,2.85
2018-04-02T00:39:19.887Z,2.70
2018-04-02T00:41:48.178Z,4.12
2018-04-02T00:44:16.319Z,2.35
2018-04-02T00:46:44.418Z,2.83
2018-04-02T00:49:12.678Z,1.95
2018-04-02T00:51:40.977Z,2.05
2018-04-02T00:54:09.366Z,1.92
2018-04-02T00:56:37.459Z,1.60
2018-04-02T00:59:05.656Z,2.50
2018-04-02T01:01:33.844Z,2.70
2018-04-02T01:04:02.044Z,2.60
2018-04-02T01:06:30.125Z,2.80
2018-04-02T01:08:59.378Z,2.60
2018-04-02T01:11:27.758Z,2.25
2018-04-02T01:13:55.877Z,2.50
2018-04-02T01:16:24.039Z,2.60
2018-04-02T01:18:52.238Z,1.85
2018-04-02T01:21:20.627Z,2.10
2018-04-02T01:23:48.820Z,2.15
2018-04-02T01:26:16.922Z,2.40
2018-04-02T01:28:45.219Z,2.33
2018-04-02T01:31:13.535Z,1.80
2018-04-02T01:33:42.722Z,1.20
2018-04-02T01:36:10.920Z,1.98
2018-04-02T01:38:38.938Z,1.65
2018-04-02T01:41:07.016Z,1.85
2018-04-02T01:43:35.098Z,2.08
2018-04-02T01:46:03.399Z,2.45
2018-04-02T01:48:31.543Z,2.10
2018-04-02T01:50:59.877Z,1.90
2018-04-02T01:53:28.078Z,2.40
2018-04-02T01:55:56.382Z,2.00
2018-04-02T01:58:24.559Z,1.30
2018-04-02T02:00:52.918Z,1.40
2018-04-02T02:03:27.214Z,1.40
2018-04-02T02:05:55.381Z,1.15
2018-04-02T02:08:23.642Z,1.25
2018-04-02T02:10:52.080Z,1.30
2018-04-02T02:13:20.484Z,1.33
2018-04-02T02:15:48.883Z,1.35
2018-04-02T02:18:17.179Z,1.42
2018-04-02T02:20:45.467Z,1.20
2018-04-02T02:23:13.775Z,1.20
2018-04-02T02:25:41.962Z,1.35
2018-04-02T02:28:10.058Z,1.90
2018-04-02T02:30:39.386Z,4.03
2018-04-02T02:33:07.400Z,4.30
2018-04-02T02:35:36.685Z,3.47
2018-04-02T02:38:04.787Z,3.72
2018-04-02T02:40:33.188Z,2.60
2018-04-02T02:43:01.975Z,2.50
2018-04-02T02:45:30.185Z,2.05
2018-04-02T02:47:58.279Z,1.55
2018-04-02T02:50:27.585Z,1.17
2018-04-02T02:52:56.001Z,1.00
2018-04-02T02:55:24.244Z,1.90
2018-04-02T02:57:52.577Z,2.47
2018-04-02T03:00:20.986Z,2.33
2018-04-02T03:02:49.218Z,2.50
2018-04-02T03:05:17.679Z,2.10
2018-04-02T03:07:45.845Z,1.62
2018-04-02T03:10:15.289Z,1.80
2018-04-02T03:12:43.496Z,1.40
2018-04-02T03:15:11.617Z,1.50
2018-04-02T03:17:39.880Z,1.30
2018-04-02T03:20:08.015Z,1.50
2018-04-02T03:22:36.197Z,1.45
2018-04-02T03:25:04.536Z,1.20
2018-04-02T03:27:32.702Z,1.33
2018-04-02T03:30:00.999Z,1.40
2018-04-02T03:32:29.441Z,1.92
2018-04-02T03:34:57.755Z,2.30
2018-04-02T03:37:26.120Z,2.70
2018-04-02T03:39:54.383Z,2.80
2018-04-02T03:42:22.741Z,1.37
2018-04-02T03:44:50.942Z,1.40
2018-04-02T03:47:19.374Z,1.05
2018-04-02T03:49:47.622Z,1.33
2018-04-02T03:52:15.802Z,1.20
2018-04-02T03:54:44.117Z,1.37
2018-04-02T03:57:12.221Z,1.62
2018-04-02T03:59:40.508Z,2.72
2018-04-02T04:02:08.733Z,2.08
2018-04-02T04:04:36.797Z,2.37
2018-04-02T04:07:04.997Z,3.15
2018-04-02T04:09:33.534Z,2.53
2018-04-02T04:12:02.006Z,2.60
2018-04-02T04:14:30.196Z,2.58
2018-04-02T04:16:58.594Z,1.92
2018-04-02T04:19:26.985Z,1.55
2018-04-02T04:21:55.198Z,1.90
2018-04-02T04:24:23.603Z,1.35
2018-04-02T04:26:51.738Z,1.30
2018-04-02T04:29:19.902Z,1.35
2018-04-02T04:31:48.168Z,1.60
2018-04-02T04:34:16.416Z,1.30
2018-04-02T04:36:44.498Z,1.40
2018-04-02T04:39:12.679Z,1.48
2018-04-02T04:41:41.984Z,1.35
2018-04-02T04:44:10.148Z,1.50
2018-04-02T04:46:38.463Z,1.83
2018-04-02T04:49:06.655Z,2.15
2018-04-02T04:51:34.941Z,1.90
2018-04-02T04:54:03.662Z,1.60
2018-04-02T04:56:31.836Z,1.98
2018-04-02T04:59:00.324Z,2.30
2018-04-02T05:01:28.644Z,1.80
2018-04-02T05:03:56.944Z,1.90
2018-04-02T05:06:25.175Z,1.87
2018-04-02T05:08:53.261Z,1.60
2018-04-02T05:11:21.357Z,3.08
2018-04-02T05:13:49.517Z,2.92
2018-04-02T05:16:17.707Z,2.45
2018-04-02T05:18:45.858Z,2.47
2018-04-02T05:21:14.397Z,2.50
2018-04-02T05:23:42.495Z,2.30
2018-04-02T05:26:10.690Z,3.00
2018-04-02T05:28:38.996Z,3.40
2018-04-02T05:31:08.320Z,3.47
2018-04-02T05:33:36.443Z,4.97
2018-04-02T05:36:04.707Z,6.93
2018-04-02T05:38:32.795Z,7.35
2018-04-02T05:41:01.087Z,7.05
2018-04-02T05:43:29.379Z,7.00
2018-04-02T05:45:57.693Z,4.97
2018-04-02T05:48:25.896Z,3.10
2018-04-02T05:50:54.174Z,4.15
2018-04-02T05:53:22.464Z,3.85
2018-04-02T05:55:50.862Z,3.22
2018-04-02T05:58:18.914Z,2.80
2018-04-02T06:00:47.084Z,3.15
2018-04-02T06:03:15.335Z,2.47
2018-04-02T06:05:44.237Z,2.65
2018-04-02T06:08:12.461Z,2.20
2018-04-02T06:10:40.534Z,1.90
2018-04-02T06:13:08.630Z,1.80
2018-04-02T06:15:36.835Z,1.52
2018-04-02T06:18:05.121Z,2.00
2018-04-02T06:20:33.307Z,1.40
2018-04-02T06:23:01.614Z,1.85
2018-04-02T06:25:29.915Z,1.62
2018-04-02T06:27:58.118Z,2.00
2018-04-02T06:30:26.200Z,1.58
2018-04-02T06:32:54.495Z,1.92
2018-04-02T06:35:22.718Z,1.90
2018-04-02T06:37:50.890Z,2.20
2018-04-02T06:40:19.094Z,2.15
2018-04-02T06:42:47.304Z,1.30
2018-04-02T06:45:15.567Z,1.60
2018-04-02T06:47:43.760Z,1.77
2018-04-02T06:50:11.949Z,1.70
2018-04-02T06:52:40.162Z,1.50
2018-04-02T06:55:08.350Z,2.15
2018-04-02T06:57:36.647Z,1.90
2018-04-02T07:00:05.040Z,1.75
2018-04-02T07:02:33.439Z,2.40
2018-04-02T07:05:01.848Z,2.00
2018-04-02T07:07:30.141Z,2.30
2018-04-02T07:09:58.260Z,2.60
2018-04-02T07:12:26.431Z,2.60
2018-04-02T07:14:54.621Z,1.90
2018-04-02T07:17:22.860Z,2.10
2018-04-02T07:19:51.004Z,2.10
2018-04-02T07:22:19.122Z,2.10
2018-04-02T07:24:47.278Z,2.20
2018-04-02T07:27:15.479Z,2.00
2018-04-02T07:29:43.719Z,2.30
2018-04-02T07:32:11.944Z,2.80
2018-04-02T07:34:40.224Z,2.70
2018-04-02T07:37:08.459Z,2.50
2018-04-02T07:39:36.802Z,2.43
2018-04-02T07:42:05.009Z,3.17
2018-04-02T07:44:33.178Z,3.80
2018-04-02T07:47:01.346Z,4.43
2018-04-02T07:49:29.553Z,6.70
2018-04-02T07:51:57.972Z,5.07
2018-04-02T07:54:26.202Z,7.03
2018-04-02T07:56:54.347Z,8.53
2018-04-02T07:59:22.414Z,10.47
2018-04-02T08:01:50.555Z,12.40
2018-04-02T08:04:18.721Z,13.67
2018-04-02T08:06:46.859Z,11.50
2018-04-02T08:09:15.200Z,18.63
2018-04-02T08:11:43.162Z,999.90
2018-04-02T08:14:11.386Z,999.90
2018-04-02T08:16:39.436Z,999.90
2018-04-02T08:19:07.705Z,999.90
2018-04-02T08:21:35.732Z,14.90
2018-04-02T08:24:03.960Z,12.43
2018-04-02T08:26:32.083Z,13.67
2018-04-02T08:29:00.347Z,12.70
2018-04-02T08:31:28.348Z,10.17
2018-04-02T08:33:56.444Z,8.43
2018-04-02T08:36:24.446Z,8.90
2018-04-02T08:38:52.580Z,11.67
2018-04-02T08:41:20.428Z,8.27
2018-04-02T08:43:48.443Z,8.17
2018-04-02T08:46:16.448Z,9.00
2018-04-02T08:48:44.574Z,8.67
2018-04-02T08:51:12.544Z,8.77
2018-04-02T08:53:40.622Z,10.27
2018-04-02T08:56:08.548Z,9.67
2018-04-02T08:58:36.604Z,9.40
2018-04-02T09:01:04.780Z,10.50
2018-04-02T09:03:32.956Z,9.33
2018-04-02T09:06:01.105Z,7.50
2018-04-02T09:08:29.319Z,7.20
2018-04-02T09:10:57.433Z,6.13
2018-04-02T09:13:25.644Z,4.50
2018-04-02T09:15:53.772Z,1.70
2018-04-02T09:18:21.887Z,3.37
2018-04-02T09:20:49.921Z,3.10
2018-04-02T09:23:18.081Z,0.57
2018-04-02T09:25:46.058Z,0.73
2018-04-02T09:28:14.136Z,1.60
2018-04-02T09:30:42.121Z,1.50
2018-04-02T09:33:10.164Z,2.30
2018-04-02T09:35:38.159Z,1.00
2018-04-02T09:38:06.262Z,0.90
2018-04-02T09:40:34.456Z,2.40
2018-04-02T09:43:02.802Z,1.00
2018-04-02T09:45:31.303Z,0.97
2018-04-02T09:47:59.600Z,0.87
2018-04-02T09:50:27.888Z,0.70
2018-04-02T09:52:56.111Z,0.77
2018-04-02T09:55:24.480Z,0.60
2018-04-02T09:57:52.689Z,0.70
2018-04-02T10:00:20.874Z,0.70
2018-04-02T10:02:49.064Z,1.03
2018-04-02T10:05:17.267Z,0.70
2018-04-02T10:07:45.464Z,0.50
2018-04-02T10:10:13.502Z,0.50
2018-04-02T10:12:41.640Z,0.55
2018-04-02T10:15:10.254Z,0.52
2018-04-02T10:17:38.554Z,0.57
2018-04-02T10:20:06.942Z,0.60
2018-04-02T10:22:35.135Z,0.57
2018-04-02T10:25:03.548Z,0.90
2018-04-02T10:27:31.730Z,0.70
2018-04-02T10:30:00.146Z,0.95
2018-04-02T10:32:28.234Z,0.50
2018-04-02T10:34:56.446Z,0.50
2018-04-02T10:37:24.515Z,0.68
2018-04-02T10:39:52.709Z,0.65
2018-04-02T10:42:20.800Z,0.70
2018-04-02T10:44:48.998Z,0.60
2018-04-02T10:47:17.180Z,0.60
2018-04-02T10:49:45.380Z,0.60
2018-04-02T10:52:13.483Z,0.62
2018-04-02T10:54:41.660Z,0.80
2018-04-02T10:57:09.957Z,0.60
2018-04-02T10:59:38.290Z,0.95
2018-04-02T11:02:06.347Z,0.70
2018-04-02T11:04:34.537Z,0.90
2018-04-02T11:07:02.947Z,0.75
2018-04-02T11:09:31.129Z,0.80
2018-04-02T11:11:59.251Z,2.03
2018-04-02T11:14:27.526Z,0.65
2018-04-02T11:16:55.620Z,0.60
2018-04-02T11:19:23.828Z,1.87
2018-04-02T11:21:51.909Z,0.70
2018-04-02T11:24:20.109Z,0.80
2018-04-02T11:26:48.288Z,0.75
2018-04-02T11:29:16.488Z,0.70
2018-04-02T11:31:44.588Z,0.70
2018-04-02T11:34:12.770Z,0.85
2018-04-02T11:36:40.768Z,0.80
2018-04-02T11:39:08.858Z,1.05
2018-04-02T11:41:36.940Z,0.82
2018-04-02T11:44:05.150Z,0.68
2018-04-02T11:46:33.329Z,1.20
2018-04-02T11:49:01.430Z,1.20
2018-04-02T11:51:29.531Z,1.10
2018-04-02T11:53:57.810Z,0.80
2018-04-02T11:56:25.910Z,0.60
2018-04-02T11:58:54.111Z,1.40
2018-04-02T12:01:22.190Z,0.95
2018-04-02T12:03:50.293Z,1.05
2018-04-02T12:06:18.490Z,0.95
2018-04-02T12:08:46.694Z,0.80
2018-04-02T12:11:14.870Z,0.70
2018-04-02T12:13:42.970Z,0.93
2018-04-02T12:16:11.270Z,1.08
2018-04-02T12:18:39.350Z,0.85
2018-04-02T12:21:07.368Z,0.98
2018-04-02T12:23:35.741Z,0.80
2018-04-02T12:26:03.732Z,0.75
2018-04-02T12:28:31.786Z,0.90
2018-04-02T12:30:59.711Z,0.70
2018-04-02T12:33:27.708Z,0.70
2018-04-02T12:35:55.726Z,0.60
2018-04-02T12:38:23.729Z,0.98
2018-04-02T12:40:51.816Z,0.73
2018-04-02T12:43:19.814Z,0.70
2018-04-02T12:45:47.848Z,0.70
2018-04-02T12:48:15.950Z,0.82
2018-04-02T12:50:43.967Z,1.08
2018-04-02T12:53:12.145Z,0.73
2018-04-02T12:55:40.381Z,0.45
2018-04-02T12:58:08.389Z,0.70
2018-04-02T13:00:36.516Z,0.70
2018-04-02T13:03:04.505Z,0.80
2018-04-02T13:05:32.607Z,0.80
2018-04-02T13:08:00.629Z,0.82
2018-04-02T13:10:28.772Z,0.70
2018-04-02T13:12:56.774Z,0.80
2018-04-02T13:15:24.855Z,0.88
2018-04-02T13:17:52.808Z,0.82
2018-04-02T13:20:20.784Z,0.60
2018-04-02T13:22:48.755Z,0.70
2018-04-02T13:25:16.753Z,0.65
2018-04-02T13:27:44.718Z,0.75
2018-04-02T13:30:12.867Z,0.80
2018-04-02T13:32:40.764Z,0.60
2018-04-02T13:35:08.936Z,0.90
2018-04-02T13:37:37.076Z,0.75
2018-04-02T13:40:05.040Z,0.85
2018-04-02T13:42:33.059Z,0.85
2018-04-02T13:45:01.036Z,0.82
2018-04-02T13:47:29.065Z,1.10
2018-04-02T13:49:57.026Z,0.80
2018-04-02T13:52:25.007Z,0.60
2018-04-02T13:54:53.067Z,0.60
2018-04-02T13:57:21.026Z,0.50
2018-04-02T13:59:49.029Z,1.30
2018-04-02T14:02:17.006Z,0.85
2018-04-02T14:04:45.189Z,0.88
2018-04-02T14:07:13.123Z,0.60
2018-04-02T14:09:41.239Z,0.70
2018-04-02T14:12:09.159Z,1.15
2018-04-02T14:14:37.198Z,0.70
2018-04-02T14:17:05.159Z,0.70
2018-04-02T14:19:33.178Z,0.90
2018-04-02T14:22:01.171Z,0.80
2018-04-02T14:24:29.263Z,0.77
2018-04-02T14:26:57.205Z,0.57
2018-04-02T14:29:25.477Z,0.50
2018-04-02T14:31:53.675Z,0.90
2018-04-02T14:34:21.762Z,0.82
2018-04-02T14:36:49.958Z,0.90
2018-04-02T14:39:18.256Z,1.10
2018-04-02T14:41:46.560Z,1.00
2018-04-02T14:44:14.851Z,0.80
2018-04-02T14:46:43.057Z,0.60
2018-04-02T14:49:11.172Z,0.75
2018-04-02T14:51:39.366Z,0.60
2018-04-02T14:54:07.512Z,0.80
2018-04-02T14:56:35.720Z,1.17
2018-04-02T14:59:03.901Z,0.70
2018-04-02T15:01:32.100Z,0.93
2018-04-02T15:04:00.501Z,0.80
2018-04-02T15:06:28.694Z,0.75
2018-04-02T15:08:56.899Z,1.12
2018-04-02T15:11:25.279Z,0.70
2018-04-02T15:13:53.378Z,0.70
2018-04-02T15:16:21.591Z,0.90
2018-04-02T15:18:50.038Z,1.02
2018-04-02T15:21:18.377Z,1.00
2018-04-02T15:23:46.676Z,1.10
2018-04-02T15:26:14.976Z,0.50
2018-04-02T15:28:43.270Z,1.10
2018-04-02T15:31:11.306Z,0.80
2018-04-02T15:33:39.755Z,0.80
2018-04-02T15:36:07.960Z,1.12
2018-04-02T15:38:36.151Z,0.73
2018-04-02T15:41:04.332Z,0.62
2018-04-02T15:43:32.481Z,0.77
2018-04-02T15:46:00.738Z,0.82
2018-04-02T15:48:29.015Z,1.00
2018-04-02T15:50:57.266Z,1.00
2018-04-02T15:53:25.525Z,0.73
2018-04-02T15:55:53.811Z,0.62
2018-04-02T15:58:22.010Z,0.93
2018-04-02T16:00:50.203Z,0.70
2018-04-02T16:03:18.285Z,1.02
2018-04-02T16:05:46.482Z,1.00
2018-04-02T16:08:14.682Z,1.15
2018-04-02T16:10:42.911Z,0.90
2018-04-02T16:13:10.905Z,0.90
2018-04-02T16:15:39.063Z,0.73
2018-04-02T16:18:07.243Z,1.12
2018-04-02T16:20:35.442Z,1.02
2018-04-02T16:23:03.541Z,1.02
2018-04-02T16:25:31.821Z,0.93
2018-04-02T16:28:00.041Z,1.10
2018-04-02T16:30:28.240Z,1.00
2018-04-02T16:32:56.520Z,1.00
2018-04-02T16:35:24.722Z,1.27
2018-04-02T16:37:53.021Z,0.95
2018-04-02T16:40:21.200Z,1.73
2018-04-02T16:42:49.301Z,1.17
2018-04-02T16:45:17.502Z,1.00
2018-04-02T16:47:45.590Z,1.08
2018-04-02T16:50:13.981Z,1.10
2018-04-02T16:52:42.186Z,0.93
2018-04-02T16:55:10.212Z,0.98
2018-04-02T16:57:38.466Z,1.00
2018-04-02T17:00:06.556Z,1.23
2018-04-02T17:02:34.757Z,0.95
2018-04-02T17:05:02.938Z,1.30
2018-04-02T17:07:31.136Z,1.50
2018-04-02T17:09:59.349Z,1.45
2018-04-02T17:12:27.522Z,1.33
2018-04-02T17:14:55.599Z,2.00
2018-04-02T17:17:23.807Z,3.55
2018-04-02T17:19:51.914Z,2.10
2018-04-02T17:22:20.092Z,1.60
2018-04-02T17:24:48.293Z,2.10
2018-04-02T17:27:16.489Z,1.85
2018-04-02T17:29:44.590Z,1.25
2018-04-02T17:32:12.775Z,1.55
2018-04-02T17:34:41.020Z,1.83
2018-04-02T17:37:09.669Z,1.87
2018-04-02T17:39:38.230Z,2.55
2018-04-02T17:42:06.475Z,1.60
2018-04-02T17:44:34.574Z,1.60
2018-04-02T17:47:02.795Z,1.58
2018-04-02T17:49:30.855Z,1.65
2018-04-02T17:51:59.063Z,1.80
2018-04-02T17:54:27.234Z,1.70
2018-04-02T17:56:55.434Z,2.30
2018-04-02T17:59:23.536Z,2.40
2018-04-02T18:01:51.724Z,3.08
2018-04-02T18:04:19.734Z,2.30
2018-04-02T18:06:47.918Z,2.72
2018-04-02T18:09:16.002Z,2.03
2018-04-02T18:11:44.404Z,2.20
2018-04-02T18:14:12.499Z,1.83
2018-04-02T18:16:40.675Z,2.40
2018-04-02T18:19:08.865Z,2.62
2018-04-02T18:21:37.200Z,2.55
2018-04-02T18:24:05.160Z,4.57
2018-04-02T18:26:33.967Z,14.10
2018-04-02T18:29:02.367Z,25.33
2018-04-02T18:31:30.578Z,107.85
2018-04-02T18:33:58.769Z,36.90
2018-04-02T18:36:26.969Z,44.50
2018-04-02T18:38:55.248Z,42.72
2018-04-02T18:41:23.448Z,33.70
2018-04-02T18:43:51.649Z,82.80
2018-04-02T18:46:19.849Z,22.05
2018-04-02T18:48:48.030Z,28.85
2018-04-02T18:51:16.130Z,17.62
2018-04-02T18:53:44.309Z,28.45
2018-04-02T18:56:12.519Z,23.90
2018-04-02T18:58:40.703Z,25.23
2018-04-02T19:01:08.815Z,23.87
2018-04-02T19:03:36.991Z,19.85
2018-04-02T19:06:04.982Z,5.12
2018-04-02T19:08:33.281Z,5.50
2018-04-02T19:11:01.482Z,8.13
2018-04-02T19:13:29.883Z,6.90
2018-04-02T19:15:57.962Z,5.22
2018-04-02T19:18:26.162Z,5.05
2018-04-02T19:20:54.362Z,6.32
2018-04-02T19:23:22.542Z,4.90
2018-04-02T19:25:50.640Z,4.55
2018-04-02T19:28:18.722Z,4.62
2018-04-02T19:30:46.822Z,4.95
2018-04-02T19:33:14.922Z,3.95
2018-04-02T19:35:43.040Z,3.65
2018-04-02T19:38:11.302Z,3.00
2018-04-02T19:40:39.302Z,7.20
2018-04-02T19:43:07.381Z,7.80
2018-04-02T19:45:35.481Z,4.25
2018-04-02T19:48:03.681Z,4.90
2018-04-02T19:50:31.702Z,6.80
2018-04-02T19:52:59.970Z,7.45
2018-04-02T19:55:28.053Z,6.93
2018-04-02T19:57:56.234Z,9.07
2018-04-02T20:00:24.640Z,15.25
2018-04-02T20:02:52.840Z,25.40
2018-04-02T20:05:21.041Z,7.60
2018-04-02T20:07:49.130Z,5.47
2018-04-02T20:10:17.220Z,21.98
2018-04-02T20:12:45.431Z,85.03
2018-04-02T20:15:13.608Z,28.62
2018-04-02T20:17:41.800Z,23.67
2018-04-02T20:20:09.991Z,5.07
2018-04-02T20:22:37.967Z,4.93
2018-04-02T20:25:06.068Z,5.65
2018-04-02T20:27:34.171Z,4.93
2018-04-02T20:30:02.269Z,3.60
2018-04-02T20:32:30.457Z,3.95
2018-04-02T20:34:58.482Z,4.00
2018-04-02T20:37:26.737Z,3.85
2018-04-02T20:39:54.881Z,3.97
2018-04-02T20:42:23.643Z,3.60
2018-04-02T20:44:52.335Z,2.85
2018-04-02T20:47:21.561Z,3.20
2018-04-02T20:49:51.382Z,3.28
2018-04-02T20:52:19.688Z,5.15
2018-04-02T20:54:47.888Z,2.70
2018-04-02T20:57:16.091Z,3.20
2018-04-02T20:59:44.167Z,2.30
2018-04-02T21:02:12.270Z,3.53
2018-04-02T21:04:40.469Z,3.35
2018-04-02T21:07:08.648Z,2.60
2018-04-02T21:09:36.747Z,2.65
2018-04-02T21:12:04.729Z,2.15
2018-04-02T21:14:32.927Z,2.03
2018-04-02T21:17:01.127Z,2.90
2018-04-02T21:19:29.318Z,2.20
2018-04-02T21:21:57.407Z,2.25
2018-04-02T21:24:25.608Z,2.20
2018-04-02T21:26:54.928Z,2.37
2018-04-02T21:29:23.536Z,1.73
2018-04-02T21:31:51.616Z,2.10
2018-04-02T21:34:19.815Z,2.28
2018-04-02T21:36:47.904Z,2.12
2018-04-02T21:39:16.013Z,2.50
2018-04-02T21:41:44.098Z,2.17
2018-04-02T21:44:12.176Z,2.50
2018-04-02T21:46:40.392Z,2.30
2018-04-02T21:49:08.465Z,2.40
2018-04-02T21:51:36.978Z,3.00
2018-04-02T21:54:05.356Z,2.75
2018-04-02T21:56:33.673Z,1.90
2018-04-02T21:59:01.752Z,2.62
2018-04-02T22:01:29.960Z,2.35
2018-04-02T22:03:58.037Z,1.70
2018-04-02T22:06:26.235Z,1.33
2018-04-02T22:08:54.635Z,1.30
2018-04-02T22:11:22.736Z,1.73
2018-04-02T22:13:50.819Z,1.98
2018-04-02T22:16:19.018Z,1.70
2018-04-02T22:18:47.208Z,2.00
2018-04-02T22:21:15.308Z,2.30
2018-04-02T22:23:43.707Z,2.00
2018-04-02T22:26:11.794Z,1.55
2018-04-02T22:28:40.902Z,1.40
2018-04-02T22:31:09.883Z,1.70
2018-04-02T22:33:37.946Z,1.50
2018-04-02T22:36:06.202Z,1.55
2018-04-02T22:38:34.402Z,1.70
2018-04-02T22:41:02.503Z,1.60
2018-04-02T22:43:31.016Z,1.80
2018-04-02T22:45:59.207Z,2.00
2018-04-02T22:48:27.486Z,1.70
2018-04-02T22:50:55.582Z,1.70
2018-04-02T22:53:23.760Z,1.60
2018-04-02T22:55:51.861Z,1.60
2018-04-02T22:58:21.177Z,1.58
2018-04-02T23:00:49.286Z,1.50
2018-04-02T23:03:17.586Z,1.87
2018-04-02T23:05:45.779Z,1.52
2018-04-02T23:08:14.055Z,1.60
2018-04-02T23:10:42.256Z,1.87
2018-04-02T23:13:10.307Z,2.20
2018-04-02T23:15:38.339Z,1.50
2018-04-02T23:18:06.636Z,1.58
2018-04-02T23:20:34.838Z,1.70
2018-04-02T23:23:03.151Z,1.50
2018-04-02T23:25:31.436Z,1.85
2018-04-02T23:27:59.727Z,1.90
2018-04-02T23:30:28.023Z,2.00
2018-04-02T23:32:56.318Z,1.90
2018-04-02T23:35:24.514Z,2.58
2018-04-02T23:37:52.600Z,1.90
2018-04-02T23:40:20.796Z,1.70
2018-04-02T23:42:49.002Z,2.50
2018-04-02T23:45:17.191Z,2.12
2018-04-02T23:47:45.277Z,2.50
2018-04-02T23:50:13.464Z,2.60
2018-04-02T23:52:41.665Z,2.85
2018-04-02T23:55:09.963Z,3.78
2018-04-02T23:57:38.058Z,2.83
